createdAt,value
2019-01-30T00:01:41.664Z,6.53
2019-01-30T00:04:11.525Z,7.20
2019-01-30T00:06:40.987Z,6.13
2019-01-30T00:09:11.812Z,6.93
2019-01-30T00:11:40.805Z,7.37
2019-01-30T00:14:09.135Z,6.20
2019-01-30T00:16:37.976Z,5.73
2019-01-30T00:19:07.371Z,6.40
2019-01-30T00:21:36.292Z,6.23
2019-01-30T00:24:05.484Z,7.00
2019-01-30T00:26:35.801Z,6.80
2019-01-30T00:29:04.376Z,7.87
2019-01-30T00:31:33.063Z,7.40
2019-01-30T00:34:01.533Z,8.03
2019-01-30T00:36:30.399Z,6.80
2019-01-30T00:38:58.805Z,6.00
2019-01-30T00:41:27.810Z,7.10
2019-01-30T00:43:57.618Z,5.47
2019-01-30T00:46:26.625Z,6.00
2019-01-30T00:48:55.208Z,7.20
2019-01-30T00:51:24.304Z,8.87
2019-01-30T00:53:53.583Z,9.37
2019-01-30T00:56:22.573Z,11.43
2019-01-30T00:58:51.188Z,14.43
2019-01-30T01:01:20.056Z,10.10
2019-01-30T01:03:48.944Z,7.90
2019-01-30T01:06:17.236Z,7.63
2019-01-30T01:08:46.020Z,8.80
2019-01-30T01:11:16.125Z,9.27
2019-01-30T01:13:45.427Z,8.43
2019-01-30T01:16:14.020Z,6.03
2019-01-30T01:18:42.087Z,7.80
2019-01-30T01:21:10.980Z,6.60
2019-01-30T01:23:39.887Z,6.47
2019-01-30T01:26:10.227Z,6.03
2019-01-30T01:28:40.236Z,6.30
2019-01-30T01:31:08.523Z,6.00
2019-01-30T01:33:36.867Z,5.63
2019-01-30T01:36:05.523Z,5.50
2019-01-30T01:38:34.048Z,6.27
2019-01-30T01:41:02.411Z,6.20
2019-01-30T01:43:31.203Z,5.80
2019-01-30T01:45:59.954Z,5.57
2019-01-30T01:48:28.578Z,5.87
2019-01-30T01:50:57.066Z,6.10
2019-01-30T01:53:26.451Z,6.40
2019-01-30T01:55:55.344Z,6.37
2019-01-30T01:58:24.153Z,5.90
2019-01-30T02:00:52.610Z,5.93
2019-01-30T02:03:21.420Z,6.50
2019-01-30T02:05:49.982Z,5.63
2019-01-30T02:08:18.784Z,5.23
2019-01-30T02:10:47.407Z,6.30
2019-01-30T02:13:16.379Z,5.67
2019-01-30T02:15:44.808Z,4.77
2019-01-30T02:18:13.116Z,5.57
2019-01-30T02:20:42.119Z,5.57
2019-01-30T02:23:11.508Z,5.47
2019-01-30T02:25:39.679Z,6.00
2019-01-30T02:28:07.959Z,6.47
2019-01-30T02:30:46.598Z,6.37
2019-01-30T02:33:06.789Z,5.60
2019-01-30T02:35:35.144Z,5.50
2019-01-30T02:38:03.620Z,5.43
2019-01-30T02:40:32.615Z,5.93
2019-01-30T02:43:01.087Z,5.47
2019-01-30T02:45:29.784Z,6.10
2019-01-30T02:47:58.993Z,5.17
2019-01-30T02:50:27.551Z,5.10
2019-01-30T02:52:56.972Z,4.87
2019-01-30T02:55:27.091Z,4.93
2019-01-30T02:57:55.975Z,6.00
2019-01-30T03:00:28.151Z,8.27
2019-01-30T03:02:56.436Z,6.30
2019-01-30T03:05:25.524Z,6.50
2019-01-30T03:07:54.506Z,7.50
2019-01-30T03:10:23.173Z,7.10
2019-01-30T03:12:51.587Z,6.30
2019-01-30T03:15:20.555Z,5.47
2019-01-30T03:17:49.177Z,5.00
2019-01-30T03:20:19.648Z,4.70
2019-01-30T03:22:48.667Z,4.80
2019-01-30T03:25:17.876Z,4.63
2019-01-30T03:27:47.541Z,4.33
2019-01-30T03:30:20.995Z,3.97
2019-01-30T03:32:51.661Z,4.43
2019-01-30T03:35:22.233Z,3.83
2019-01-30T03:37:51.939Z,4.70
2019-01-30T03:40:20.836Z,4.43
2019-01-30T03:42:49.792Z,4.50
2019-01-30T03:45:20.079Z,4.80
2019-01-30T03:47:48.947Z,4.90
2019-01-30T03:50:17.935Z,4.43
2019-01-30T03:52:47.451Z,4.30
2019-01-30T03:55:16.623Z,4.00
2019-01-30T03:57:45.581Z,4.37
2019-01-30T04:00:15.925Z,4.20
2019-01-30T04:02:44.317Z,4.37
2019-01-30T04:05:12.960Z,4.50
2019-01-30T04:07:43.030Z,4.40
2019-01-30T04:10:15.978Z,3.80
2019-01-30T04:12:44.730Z,4.00
2019-01-30T04:15:13.705Z,4.33
2019-01-30T04:17:43.661Z,4.50
2019-01-30T04:20:12.595Z,4.63
2019-01-30T04:22:40.956Z,4.10
2019-01-30T04:25:09.167Z,4.17
2019-01-30T04:27:38.340Z,3.93
2019-01-30T04:30:11.647Z,3.60
2019-01-30T04:32:40.603Z,3.63
2019-01-30T04:35:10.101Z,4.17
2019-01-30T04:37:39.788Z,4.23
2019-01-30T04:40:10.303Z,4.97
2019-01-30T04:42:38.994Z,4.37
2019-01-30T04:45:09.111Z,4.80
2019-01-30T04:47:37.765Z,3.90
2019-01-30T04:50:06.475Z,4.90
2019-01-30T04:52:34.640Z,4.37
2019-01-30T04:55:04.561Z,4.37
2019-01-30T04:57:33.633Z,4.63
2019-01-30T05:00:02.431Z,4.23
2019-01-30T05:02:30.317Z,4.73
2019-01-30T05:04:58.584Z,5.40
2019-01-30T05:07:27.569Z,5.00
2019-01-30T05:09:55.987Z,6.10
2019-01-30T05:12:24.736Z,5.97
2019-01-30T05:14:53.627Z,4.97
2019-01-30T05:17:22.123Z,4.00
2019-01-30T05:19:50.392Z,3.93
2019-01-30T05:22:19.608Z,5.27
2019-01-30T05:24:48.191Z,4.53
2019-01-30T05:27:16.772Z,4.30
2019-01-30T05:29:45.145Z,5.03
2019-01-30T05:32:13.207Z,4.20
2019-01-30T05:34:41.811Z,4.17
2019-01-30T05:37:11.093Z,9.83
2019-01-30T05:39:39.877Z,11.50
2019-01-30T05:42:08.891Z,7.50
2019-01-30T05:44:37.105Z,7.87
2019-01-30T05:47:05.836Z,5.60
2019-01-30T05:49:35.035Z,6.30
2019-01-30T05:52:04.403Z,5.27
2019-01-30T05:54:34.493Z,6.10
2019-01-30T05:57:03.352Z,5.43
2019-01-30T05:59:31.747Z,5.23
2019-01-30T06:02:05.648Z,4.80
2019-01-30T06:04:30.867Z,5.53
2019-01-30T06:07:00.051Z,4.70
2019-01-30T06:09:28.836Z,5.60
2019-01-30T06:11:57.811Z,5.50
2019-01-30T06:14:26.910Z,6.10
2019-01-30T06:16:54.963Z,6.43
2019-01-30T06:19:23.148Z,5.97
2019-01-30T06:21:52.356Z,5.20
2019-01-30T06:24:21.125Z,4.83
2019-01-30T06:26:49.465Z,5.10
2019-01-30T06:29:18.879Z,6.03
2019-01-30T06:31:47.606Z,5.40
2019-01-30T06:34:16.756Z,5.30
2019-01-30T06:36:45.289Z,7.07
2019-01-30T06:39:14.645Z,5.03
2019-01-30T06:41:43.891Z,6.90
2019-01-30T06:44:12.393Z,5.53
2019-01-30T06:46:40.647Z,6.27
2019-01-30T06:49:11.289Z,5.93
2019-01-30T06:51:39.760Z,6.63
2019-01-30T06:54:08.851Z,6.20
2019-01-30T06:56:37.859Z,6.20
2019-01-30T06:59:06.836Z,6.93
2019-01-30T07:01:35.357Z,5.97
2019-01-30T07:04:03.700Z,6.90
2019-01-30T07:06:32.079Z,7.23
2019-01-30T07:09:02.208Z,7.00
2019-01-30T07:11:31.211Z,7.17
2019-01-30T07:14:00.331Z,6.93
2019-01-30T07:16:29.144Z,7.10
2019-01-30T07:18:57.461Z,8.03
2019-01-30T07:21:25.759Z,7.80
2019-01-30T07:23:54.014Z,6.63
2019-01-30T07:26:22.431Z,6.93
2019-01-30T07:28:50.448Z,7.47
2019-01-30T07:31:19.379Z,8.17
2019-01-30T07:33:48.140Z,7.50
2019-01-30T07:36:16.540Z,7.60
2019-01-30T07:38:45.315Z,6.80
2019-01-30T07:41:13.982Z,8.90
2019-01-30T07:43:43.624Z,7.80
2019-01-30T07:46:11.977Z,7.87
2019-01-30T07:48:41.803Z,7.10
2019-01-30T07:51:10.705Z,7.53
2019-01-30T07:53:39.875Z,7.70
2019-01-30T07:56:08.800Z,6.87
2019-01-30T07:58:37.348Z,8.60
2019-01-30T08:01:05.708Z,7.47
2019-01-30T08:03:35.441Z,7.70
2019-01-30T08:06:04.228Z,7.93
2019-01-30T08:08:34.399Z,8.00
2019-01-30T08:11:03.556Z,7.80
2019-01-30T08:13:32.665Z,7.40
2019-01-30T08:16:00.611Z,7.03
2019-01-30T08:18:30.011Z,8.00
2019-01-30T08:20:58.388Z,7.17
2019-01-30T08:23:29.587Z,7.40
2019-01-30T08:25:58.460Z,7.73
2019-01-30T08:28:28.060Z,8.00
2019-01-30T08:30:56.980Z,8.40
2019-01-30T08:33:25.457Z,7.93
2019-01-30T08:35:55.268Z,8.33
2019-01-30T08:38:24.283Z,7.57
2019-01-30T08:40:53.275Z,8.80
2019-01-30T08:43:22.501Z,9.00
2019-01-30T08:45:51.408Z,9.77
2019-01-30T08:48:20.894Z,10.77
2019-01-30T08:50:50.807Z,9.90
2019-01-30T08:53:20.212Z,9.40
2019-01-30T08:55:49.128Z,6.90
2019-01-30T08:58:17.479Z,8.67
2019-01-30T09:00:46.176Z,8.00
2019-01-30T09:03:15.260Z,8.70
2019-01-30T09:05:43.857Z,9.07
2019-01-30T09:08:13.675Z,9.70
2019-01-30T09:10:42.839Z,8.37
2019-01-30T09:13:11.983Z,8.23
2019-01-30T09:15:40.648Z,8.90
2019-01-30T09:18:08.916Z,8.53
2019-01-30T09:20:55.730Z,8.97
2019-01-30T09:23:24.336Z,8.37
2019-01-30T09:25:53.319Z,8.40
2019-01-30T09:28:21.995Z,8.83
2019-01-30T09:30:51.835Z,8.60
2019-01-30T09:33:25.868Z,7.60
2019-01-30T09:35:50.542Z,7.73
2019-01-30T09:38:19.744Z,8.77
2019-01-30T09:40:48.743Z,8.10
2019-01-30T09:43:17.095Z,9.37
2019-01-30T09:45:47.033Z,8.97
2019-01-30T09:48:16.699Z,8.90
2019-01-30T09:50:45.511Z,8.93
2019-01-30T09:53:13.885Z,8.70
2019-01-30T09:55:42.554Z,9.13
2019-01-30T09:58:11.361Z,9.30
2019-01-30T10:00:39.793Z,8.97
2019-01-30T10:03:08.983Z,10.10
2019-01-30T10:05:38.529Z,9.10
2019-01-30T10:08:08.783Z,8.73
2019-01-30T10:10:38.542Z,8.50
2019-01-30T10:13:07.963Z,9.03
2019-01-30T10:15:38.303Z,8.70
2019-01-30T10:18:07.162Z,8.20
2019-01-30T10:20:35.976Z,8.73
2019-01-30T10:23:04.775Z,8.63
2019-01-30T10:25:33.047Z,7.93
2019-01-30T10:28:01.526Z,8.77
2019-01-30T10:30:31.804Z,8.30
2019-01-30T10:33:00.376Z,8.70
2019-01-30T10:35:28.691Z,8.07
2019-01-30T10:37:57.424Z,8.20
2019-01-30T10:40:26.749Z,8.50
2019-01-30T10:42:57.337Z,8.73
2019-01-30T10:45:25.927Z,8.37
2019-01-30T10:47:54.390Z,8.60
2019-01-30T10:50:23.813Z,9.00
2019-01-30T10:52:52.218Z,8.00
2019-01-30T10:55:22.658Z,8.00
2019-01-30T10:57:54.039Z,8.50
2019-01-30T11:00:24.563Z,8.63
2019-01-30T11:02:52.975Z,8.27
2019-01-30T11:05:21.999Z,7.63
2019-01-30T11:07:51.768Z,8.30
2019-01-30T11:10:20.263Z,8.97
2019-01-30T11:12:50.047Z,9.07
2019-01-30T11:15:19.891Z,8.83
2019-01-30T11:17:48.750Z,9.00
2019-01-30T11:20:21.889Z,9.20
2019-01-30T11:22:53.313Z,9.00
2019-01-30T11:25:23.114Z,8.60
2019-01-30T11:27:52.775Z,8.70
2019-01-30T11:30:21.668Z,9.40
2019-01-30T11:32:50.398Z,8.27
2019-01-30T11:35:18.413Z,8.70
2019-01-30T11:37:48.647Z,8.37
2019-01-30T11:40:19.266Z,8.87
2019-01-30T11:42:47.991Z,8.30
2019-01-30T11:45:19.145Z,9.40
2019-01-30T11:47:48.031Z,9.77
2019-01-30T11:50:16.703Z,8.30
2019-01-30T11:52:46.945Z,9.03
2019-01-30T11:55:15.828Z,9.90
2019-01-30T11:57:44.929Z,8.73
2019-01-30T12:00:20.468Z,8.33
2019-01-30T12:02:49.059Z,9.40
2019-01-30T12:05:17.643Z,9.20
2019-01-30T12:07:46.946Z,8.90
2019-01-30T12:10:17.083Z,8.90
2019-01-30T12:12:46.768Z,9.07
2019-01-30T12:15:18.539Z,9.40
2019-01-30T12:17:47.936Z,8.87
2019-01-30T12:20:18.047Z,9.40
2019-01-30T12:22:46.679Z,8.47
2019-01-30T12:25:15.622Z,9.10
2019-01-30T12:27:43.803Z,8.77
2019-01-30T12:30:15.787Z,8.63
2019-01-30T12:32:46.946Z,9.70
2019-01-30T12:35:16.756Z,10.17
2019-01-30T12:37:46.942Z,8.93
2019-01-30T12:40:17.962Z,9.33
2019-01-30T12:42:46.355Z,9.43
2019-01-30T12:45:22.223Z,9.63
2019-01-30T12:47:51.367Z,8.53
2019-01-30T12:50:21.072Z,8.20
2019-01-30T12:52:49.782Z,8.80
2019-01-30T12:55:18.684Z,8.10
2019-01-30T12:57:46.907Z,8.80
2019-01-30T13:00:18.585Z,8.10
2019-01-30T13:02:47.226Z,8.87
2019-01-30T13:05:16.171Z,9.07
2019-01-30T13:07:45.463Z,8.30
2019-01-30T13:10:14.152Z,8.50
2019-01-30T13:12:43.453Z,8.20
2019-01-30T13:15:14.560Z,9.60
2019-01-30T13:17:43.176Z,7.83
2019-01-30T13:20:16.616Z,7.63
2019-01-30T13:22:45.142Z,8.57
2019-01-30T13:25:16.929Z,8.33
2019-01-30T13:27:45.424Z,7.60
2019-01-30T13:30:19.843Z,8.90
2019-01-30T13:32:48.753Z,8.30
2019-01-30T13:35:18.558Z,9.17
2019-01-30T13:37:46.845Z,7.70
2019-01-30T13:40:18.647Z,8.50
2019-01-30T13:42:48.423Z,7.57
2019-01-30T13:45:16.706Z,8.63
2019-01-30T13:47:46.877Z,9.00
2019-01-30T13:50:20.499Z,9.07
2019-01-30T13:52:48.667Z,8.67
2019-01-30T13:55:16.861Z,7.30
2019-01-30T13:57:45.317Z,7.70
2019-01-30T14:00:20.464Z,7.87
2019-01-30T14:02:51.079Z,8.63
2019-01-30T14:05:19.556Z,7.30
2019-01-30T14:07:47.944Z,7.00
2019-01-30T14:10:17.607Z,8.10
2019-01-30T14:12:46.335Z,7.80
2019-01-30T14:15:16.236Z,7.10
2019-01-30T14:17:45.635Z,7.90
2019-01-30T14:20:16.002Z,8.87
2019-01-30T14:22:44.455Z,7.67
2019-01-30T14:25:13.625Z,8.67
2019-01-30T14:27:41.946Z,7.70
2019-01-30T14:30:13.731Z,6.90
2019-01-30T14:32:41.794Z,7.83
2019-01-30T14:35:12.435Z,8.43
2019-01-30T14:37:41.427Z,7.33
2019-01-30T14:40:12.284Z,5.50
2019-01-30T14:42:51.239Z,4.60
2019-01-30T14:45:19.740Z,1.90
2019-01-30T14:47:48.953Z,1.30
2019-01-30T14:50:21.303Z,1.10
2019-01-30T14:52:50.977Z,1.60
2019-01-30T14:55:20.179Z,1.10
2019-01-30T14:57:50.248Z,1.20
2019-01-30T15:00:25.451Z,1.43
2019-01-30T15:02:53.761Z,1.90
2019-01-30T15:05:22.938Z,11.87
2019-01-30T15:07:51.386Z,2.20
2019-01-30T15:10:20.522Z,1.50
2019-01-30T15:12:49.241Z,1.10
2019-01-30T15:15:20.498Z,1.17
2019-01-30T15:17:49.343Z,1.10
2019-01-30T15:20:20.056Z,1.20
2019-01-30T15:22:48.892Z,1.50
2019-01-30T15:25:18.171Z,1.10
2019-01-30T15:27:46.431Z,1.13
2019-01-30T15:30:18.027Z,1.20
2019-01-30T15:32:47.011Z,1.13
2019-01-30T15:35:16.544Z,1.47
2019-01-30T15:37:44.606Z,1.17
2019-01-30T15:40:16.083Z,1.67
2019-01-30T15:42:49.410Z,1.33
2019-01-30T15:45:16.751Z,1.57
2019-01-30T15:47:45.988Z,1.53
2019-01-30T15:50:18.163Z,1.67
2019-01-30T15:52:47.327Z,1.70
2019-01-30T15:55:17.359Z,1.80
2019-01-30T15:57:47.986Z,1.80
2019-01-30T16:00:41.035Z,1.50
2019-01-30T16:03:10.808Z,2.10
2019-01-30T16:05:44.955Z,1.67
2019-01-30T16:08:09.617Z,1.87
2019-01-30T16:10:38.108Z,1.93
2019-01-30T16:13:06.933Z,1.80
2019-01-30T16:15:56.606Z,1.97
2019-01-30T16:18:24.848Z,2.83
2019-01-30T16:20:53.645Z,2.20
2019-01-30T16:23:23.319Z,2.00
2019-01-30T16:25:52.293Z,2.20
2019-01-30T16:28:20.475Z,1.70
2019-01-30T16:30:49.183Z,2.60
2019-01-30T16:33:17.719Z,2.03
2019-01-30T16:35:55.565Z,2.40
2019-01-30T16:38:19.300Z,2.50
2019-01-30T16:40:47.868Z,2.20
2019-01-30T16:43:16.108Z,2.50
2019-01-30T16:45:46.678Z,2.10
2019-01-30T16:48:14.939Z,2.37
2019-01-30T16:50:43.479Z,2.70
2019-01-30T16:53:12.172Z,3.13
2019-01-30T16:55:42.183Z,2.60
2019-01-30T16:58:11.128Z,2.37
2019-01-30T17:00:39.995Z,2.70
2019-01-30T17:03:09.442Z,2.67
2019-01-30T17:05:39.636Z,2.93
2019-01-30T17:08:08.887Z,3.37
2019-01-30T17:10:37.216Z,3.10
2019-01-30T17:13:07.400Z,3.23
2019-01-30T17:15:37.613Z,8.10
2019-01-30T17:18:08.785Z,3.30
2019-01-30T17:20:39.162Z,2.90
2019-01-30T17:23:07.795Z,2.87
2019-01-30T17:25:36.924Z,2.30
2019-01-30T17:28:05.708Z,2.10
2019-01-30T17:30:52.622Z,2.30
2019-01-30T17:33:21.824Z,2.23
2019-01-30T17:35:50.337Z,3.10
2019-01-30T17:38:18.677Z,3.10
2019-01-30T17:40:48.537Z,3.23
2019-01-30T17:43:17.292Z,2.80
2019-01-30T17:45:45.729Z,3.50
2019-01-30T17:48:16.204Z,3.47
2019-01-30T17:50:45.349Z,4.50
2019-01-30T17:53:15.352Z,4.97
2019-01-30T17:55:43.704Z,5.03
2019-01-30T17:58:11.920Z,4.97
2019-01-30T18:00:51.712Z,2.77
2019-01-30T18:03:21.243Z,2.80
2019-01-30T18:05:54.267Z,2.70
2019-01-30T18:08:23.435Z,2.60
2019-01-30T18:10:52.574Z,3.10
2019-01-30T18:13:21.090Z,3.13
2019-01-30T18:15:52.431Z,3.30
2019-01-30T18:18:21.665Z,3.23
2019-01-30T18:20:52.462Z,2.90
2019-01-30T18:23:22.246Z,3.07
2019-01-30T18:25:52.395Z,3.47
2019-01-30T18:28:22.043Z,3.47
2019-01-30T18:30:51.231Z,9.47
2019-01-30T18:33:19.975Z,5.23
2019-01-30T18:35:48.443Z,4.53
2019-01-30T18:38:17.012Z,3.60
2019-01-30T18:40:46.767Z,3.50
2019-01-30T18:43:15.016Z,3.23
2019-01-30T18:45:43.621Z,3.37
2019-01-30T18:48:14.062Z,3.13
2019-01-30T18:50:45.870Z,4.10
2019-01-30T18:53:15.092Z,4.37
2019-01-30T18:55:44.135Z,4.00
2019-01-30T18:58:13.772Z,4.07
2019-01-30T19:00:45.146Z,3.30
2019-01-30T19:03:14.995Z,4.00
2019-01-30T19:05:45.111Z,3.30
2019-01-30T19:08:14.331Z,3.67
2019-01-30T19:10:43.668Z,3.70
2019-01-30T19:13:12.270Z,3.03
2019-01-30T19:15:41.497Z,3.40
2019-01-30T19:18:12.890Z,3.73
2019-01-30T19:20:43.227Z,4.07
2019-01-30T19:23:11.687Z,3.67
2019-01-30T19:25:40.036Z,3.40
2019-01-30T19:28:08.495Z,4.00
2019-01-30T19:30:38.029Z,4.03
2019-01-30T19:33:08.193Z,4.30
2019-01-30T19:35:36.800Z,4.30
2019-01-30T19:38:06.990Z,4.37
2019-01-30T19:40:35.545Z,3.90
2019-01-30T19:43:04.349Z,3.90
2019-01-30T19:45:32.584Z,3.33
2019-01-30T19:48:01.948Z,3.83
2019-01-30T19:50:32.792Z,4.13
2019-01-30T19:53:05.357Z,3.90
2019-01-30T19:55:33.647Z,3.57
2019-01-30T19:58:01.389Z,3.73
2019-01-30T20:00:32.383Z,3.70
2019-01-30T20:03:01.440Z,3.90
2019-01-30T20:05:30.669Z,4.23
2019-01-30T20:07:59.251Z,4.00
2019-01-30T20:10:30.312Z,3.37
2019-01-30T20:12:58.637Z,3.60
2019-01-30T20:15:27.646Z,4.03
2019-01-30T20:17:55.813Z,3.70
2019-01-30T20:20:24.445Z,3.80
2019-01-30T20:22:52.749Z,4.47
2019-01-30T20:25:23.428Z,4.30
2019-01-30T20:27:54.833Z,4.00
2019-01-30T20:30:23.247Z,9.73
2019-01-30T20:32:52.537Z,14.00
2019-01-30T20:35:20.944Z,12.60
2019-01-30T20:37:49.999Z,4.27
2019-01-30T20:40:21.307Z,3.63
2019-01-30T20:42:52.687Z,3.40
2019-01-30T20:45:20.232Z,3.17
2019-01-30T20:47:52.169Z,3.60
2019-01-30T20:50:22.524Z,4.13
2019-01-30T20:52:51.619Z,3.67
2019-01-30T20:55:21.300Z,4.20
2019-01-30T20:57:49.388Z,3.60
2019-01-30T21:00:20.943Z,3.87
2019-01-30T21:02:50.606Z,3.57
2019-01-30T21:05:18.865Z,4.57
2019-01-30T21:07:46.968Z,3.30
2019-01-30T21:10:18.156Z,3.60
2019-01-30T21:12:46.306Z,3.73
2019-01-30T21:15:15.431Z,3.20
2019-01-30T21:17:44.050Z,3.40
2019-01-30T21:20:14.645Z,3.60
2019-01-30T21:22:42.896Z,3.10
2019-01-30T21:25:16.843Z,3.40
2019-01-30T21:27:45.752Z,3.30
2019-01-30T21:30:16.891Z,3.53
2019-01-30T21:32:44.827Z,3.13
2019-01-30T21:35:13.972Z,3.20
2019-01-30T21:37:48.992Z,3.27
2019-01-30T21:40:16.467Z,3.07
2019-01-30T21:42:44.942Z,2.97
2019-01-30T21:45:16.648Z,3.20
2019-01-30T21:47:44.768Z,3.53
2019-01-30T21:50:13.431Z,2.90
2019-01-30T21:52:41.792Z,2.77
2019-01-30T21:55:13.695Z,2.73
2019-01-30T21:57:42.039Z,2.57
2019-01-30T22:00:13.475Z,3.00
2019-01-30T22:02:41.739Z,2.57
2019-01-30T22:05:09.947Z,2.80
2019-01-30T22:07:38.084Z,2.50
2019-01-30T22:10:09.247Z,2.70
2019-01-30T22:12:37.863Z,2.60
2019-01-30T22:15:08.667Z,2.83
2019-01-30T22:17:38.820Z,2.33
2019-01-30T22:20:10.674Z,2.33
2019-01-30T22:22:41.403Z,2.37
2019-01-30T22:25:19.949Z,2.10
2019-01-30T22:27:45.252Z,3.00
2019-01-30T22:30:39.048Z,2.40
2019-01-30T22:33:07.882Z,2.27
2019-01-30T22:35:37.097Z,2.60
2019-01-30T22:38:12.480Z,2.30
2019-01-30T22:40:37.847Z,2.40
2019-01-30T22:43:06.593Z,2.70
2019-01-30T22:45:36.415Z,2.40
2019-01-30T22:48:06.859Z,2.50
2019-01-30T22:50:35.804Z,2.70
2019-01-30T22:53:04.915Z,2.70
2019-01-30T22:55:33.420Z,3.80
2019-01-30T22:58:02.535Z,3.57
2019-01-30T23:01:00.807Z,2.90
2019-01-30T23:04:05.535Z,2.27
2019-01-30T23:06:54.071Z,2.60
2019-01-30T23:10:16.195Z,2.47
2019-01-30T23:13:10.950Z,2.33
2019-01-30T23:16:35.521Z,2.97
2019-01-30T23:19:27.844Z,2.33
2019-01-30T23:22:22.455Z,2.50
2019-01-30T23:25:18.796Z,2.70
2019-01-30T23:28:07.644Z,2.83
2019-01-30T23:30:53.939Z,2.43
2019-01-30T23:34:01.126Z,2.13
2019-01-30T23:37:04.188Z,2.13
2019-01-30T23:39:44.831Z,2.20
2019-01-30T23:42:35.607Z,2.10
2019-01-30T23:45:33.987Z,2.80
2019-01-30T23:48:39.584Z,2.80
2019-01-30T23:51:24.431Z,2.57
2019-01-30T23:54:39.123Z,2.80
2019-01-30T23:57:52.321Z,2.60
